sensor_id;sensor_type;location;lat;lon;timestamp;temperature;humidity
67131;HTU21D;54051;53.464;49.532;2022-11-20T00:00:11;0.07;87.03
67131;HTU21D;54051;53.464;49.532;2022-11-20T00:02:37;0.01;86.74
67131;HTU21D;54051;53.464;49.532;2022-11-20T00:05:04;-0.01;86.93
67131;HTU21D;54051;53.464;49.532;2022-11-20T00:07:30;-0.02;86.74
67131;HTU21D;54051;53.464;49.532;2022-11-20T00:09:56;-0.07;86.88
67131;HTU21D;54051;53.464;49.532;2022-11-20T00:12:22;-0.09;87.33
67131;HTU21D;54051;53.464;49.532;2022-11-20T00:14:48;-0.12;87.20
67131;HTU21D;54051;53.464;49.532;2022-11-20T00:17:13;-0.15;87.61
67131;HTU21D;54051;53.464;49.532;2022-11-20T00:19:39;-0.16;87.53
67131;HTU21D;54051;53.464;49.532;2022-11-20T00:22:05;-0.19;87.92
67131;HTU21D;54051;53.464;49.532;2022-11-20T00:24:31;-0.14;87.37
67131;HTU21D;54051;53.464;49.532;2022-11-20T00:26:57;-0.31;87.38
67131;HTU21D;54051;53.464;49.532;2022-11-20T00:29:23;-0.24;88.06
67131;HTU21D;54051;53.464;49.532;2022-11-20T00:31:49;-0.20;88.03
67131;HTU21D;54051;53.464;49.532;2022-11-20T00:34:15;-0.08;87.45
67131;HTU21D;54051;53.464;49.532;2022-11-20T00:36:41;-0.10;86.54
67131;HTU21D;54051;53.464;49.532;2022-11-20T00:39:07;-0.12;86.67
67131;HTU21D;54051;53.464;49.532;2022-11-20T00:41:33;-0.25;87.20
67131;HTU21D;54051;53.464;49.532;2022-11-20T00:43:59;-0.22;87.33
67131;HTU21D;54051;53.464;49.532;2022-11-20T00:46:27;-0.25;87.05
67131;HTU21D;54051;53.464;49.532;2022-11-20T00:48:53;-0.29;87.42
67131;HTU21D;54051;53.464;49.532;2022-11-20T00:51:21;-0.26;87.32
67131;HTU21D;54051;53.464;49.532;2022-11-20T00:53:48;-0.20;87.22
67131;HTU21D;54051;53.464;49.532;2022-11-20T00:56:17;-0.13;86.85
67131;HTU21D;54051;53.464;49.532;2022-11-20T00:58:45;-0.16;86.58
67131;HTU21D;54051;53.464;49.532;2022-11-20T01:03:47;-0.28;87.47
67131;HTU21D;54051;53.464;49.532;2022-11-20T01:06:25;-0.22;87.43
67131;HTU21D;54051;53.464;49.532;2022-11-20T01:08:54;-0.22;87.54
67131;HTU21D;54051;53.464;49.532;2022-11-20T01:11:22;-0.19;87.35
67131;HTU21D;54051;53.464;49.532;2022-11-20T01:13:50;-0.12;87.41
67131;HTU21D;54051;53.464;49.532;2022-11-20T01:16:26;-0.06;87.29
67131;HTU21D;54051;53.464;49.532;2022-11-20T01:18:54;-0.15;86.67
67131;HTU21D;54051;53.464;49.532;2022-11-20T01:21:22;-0.21;87.14
67131;HTU21D;54051;53.464;49.532;2022-11-20T01:23:49;-0.19;87.44
67131;HTU21D;54051;53.464;49.532;2022-11-20T01:26:18;-0.25;87.12
67131;HTU21D;54051;53.464;49.532;2022-11-20T01:28:45;-0.15;87.37
67131;HTU21D;54051;53.464;49.532;2022-11-20T01:31:15;-0.16;86.69
67131;HTU21D;54051;53.464;49.532;2022-11-20T01:33:42;-0.24;86.86
67131;HTU21D;54051;53.464;49.532;2022-11-20T01:36:09;-0.21;87.44
67131;HTU21D;54051;53.464;49.532;2022-11-20T01:38:35;-0.08;86.49
67131;HTU21D;54051;53.464;49.532;2022-11-20T01:41:02;-0.11;86.04
67131;HTU21D;54051;53.464;49.532;2022-11-20T01:43:28;-0.06;86.38
67131;HTU21D;54051;53.464;49.532;2022-11-20T01:54:35;-0.11;86.06
67131;HTU21D;54051;53.464;49.532;2022-11-20T01:57:02;-0.20;86.38
67131;HTU21D;54051;53.464;49.532;2022-11-20T01:59:30;-0.28;86.83
67131;HTU21D;54051;53.464;49.532;2022-11-20T02:01:56;-0.28;87.15
67131;HTU21D;54051;53.464;49.532;2022-11-20T02:04:23;-0.27;86.87
67131;HTU21D;54051;53.464;49.532;2022-11-20T02:06:53;-0.29;86.60
67131;HTU21D;54051;53.464;49.532;2022-11-20T02:09:22;-0.39;87.25
67131;HTU21D;54051;53.464;49.532;2022-11-20T02:11:49;-0.28;87.15
67131;HTU21D;54051;53.464;49.532;2022-11-20T02:14:15;-0.30;86.61
67131;HTU21D;54051;53.464;49.532;2022-11-20T02:16:45;-0.32;87.06
67131;HTU21D;54051;53.464;49.532;2022-11-20T02:19:24;-0.30;86.81
67131;HTU21D;54051;53.464;49.532;2022-11-20T02:22:07;-0.16;87.02
67131;HTU21D;54051;53.464;49.532;2022-11-20T02:24:35;-0.15;86.40
67131;HTU21D;54051;53.464;49.532;2022-11-20T02:27:12;-0.22;86.41
67131;HTU21D;54051;53.464;49.532;2022-11-20T02:29:45;-0.23;86.38
67131;HTU21D;54051;53.464;49.532;2022-11-20T02:32:25;-0.21;86.58
67131;HTU21D;54051;53.464;49.532;2022-11-20T02:34:51;-0.15;86.24
67131;HTU21D;54051;53.464;49.532;2022-11-20T02:37:18;-0.25;86.52
67131;HTU21D;54051;53.464;49.532;2022-11-20T02:39:47;-0.14;86.54
67131;HTU21D;54051;53.464;49.532;2022-11-20T02:42:13;-0.20;86.38
67131;HTU21D;54051;53.464;49.532;2022-11-20T02:44:39;-0.17;86.29
67131;HTU21D;54051;53.464;49.532;2022-11-20T02:47:05;-0.16;86.46
67131;HTU21D;54051;53.464;49.532;2022-11-20T02:49:32;-0.20;86.98
67131;HTU21D;54051;53.464;49.532;2022-11-20T02:51:58;-0.16;87.09
67131;HTU21D;54051;53.464;49.532;2022-11-20T02:54:24;-0.21;86.80
67131;HTU21D;54051;53.464;49.532;2022-11-20T02:56:51;-0.16;86.72
67131;HTU21D;54051;53.464;49.532;2022-11-20T02:59:17;-0.20;86.67
67131;HTU21D;54051;53.464;49.532;2022-11-20T03:01:43;-0.22;87.27
67131;HTU21D;54051;53.464;49.532;2022-11-20T03:04:09;-0.27;87.32
67131;HTU21D;54051;53.464;49.532;2022-11-20T03:06:35;-0.32;87.73
67131;HTU21D;54051;53.464;49.532;2022-11-20T03:09:01;-0.32;87.85
67131;HTU21D;54051;53.464;49.532;2022-11-20T03:11:28;-0.34;87.63
67131;HTU21D;54051;53.464;49.532;2022-11-20T03:13:54;-0.43;88.89
67131;HTU21D;54051;53.464;49.532;2022-11-20T03:16:22;-0.36;89.04
67131;HTU21D;54051;53.464;49.532;2022-11-20T03:18:49;-0.29;88.53
67131;HTU21D;54051;53.464;49.532;2022-11-20T03:21:15;-0.22;88.48
67131;HTU21D;54051;53.464;49.532;2022-11-20T03:23:42;-0.13;88.25
67131;HTU21D;54051;53.464;49.532;2022-11-20T03:26:12;-0.20;87.95
67131;HTU21D;54051;53.464;49.532;2022-11-20T03:28:40;-0.15;88.46
67131;HTU21D;54051;53.464;49.532;2022-11-20T03:31:08;-0.17;88.15
67131;HTU21D;54051;53.464;49.532;2022-11-20T03:33:34;-0.16;87.74
67131;HTU21D;54051;53.464;49.532;2022-11-20T03:36:08;-0.15;88.51
67131;HTU21D;54051;53.464;49.532;2022-11-20T03:38:35;-0.05;88.36
67131;HTU21D;54051;53.464;49.532;2022-11-20T03:41:04;0.01;88.06
67131;HTU21D;54051;53.464;49.532;2022-11-20T03:43:31;0.02;87.47
67131;HTU21D;54051;53.464;49.532;2022-11-20T03:45:57;-0.05;87.53
67131;HTU21D;54051;53.464;49.532;2022-11-20T03:48:23;-0.02;87.67
67131;HTU21D;54051;53.464;49.532;2022-11-20T03:50:50;0.02;87.35
67131;HTU21D;54051;53.464;49.532;2022-11-20T03:53:17;-0.08;87.41
67131;HTU21D;54051;53.464;49.532;2022-11-20T03:55:43;-0.19;87.93
67131;HTU21D;54051;53.464;49.532;2022-11-20T03:58:10;-0.17;88.29
67131;HTU21D;54051;53.464;49.532;2022-11-20T04:00:36;-0.13;88.08
67131;HTU21D;54051;53.464;49.532;2022-11-20T04:03:02;-0.12;87.70
67131;HTU21D;54051;53.464;49.532;2022-11-20T04:05:28;-0.09;87.28
67131;HTU21D;54051;53.464;49.532;2022-11-20T04:07:54;-0.10;87.03
67131;HTU21D;54051;53.464;49.532;2022-11-20T04:10:20;-0.17;87.21
67131;HTU21D;54051;53.464;49.532;2022-11-20T04:12:46;-0.29;87.87
67131;HTU21D;54051;53.464;49.532;2022-11-20T04:15:12;-0.32;88.09
67131;HTU21D;54051;53.464;49.532;2022-11-20T04:17:38;-0.29;88.28
67131;HTU21D;54051;53.464;49.532;2022-11-20T04:20:04;-0.27;87.93
67131;HTU21D;54051;53.464;49.532;2022-11-20T04:22:30;-0.30;87.58
67131;HTU21D;54051;53.464;49.532;2022-11-20T04:24:56;-0.30;87.86
67131;HTU21D;54051;53.464;49.532;2022-11-20T04:27:22;-0.30;87.86
67131;HTU21D;54051;53.464;49.532;2022-11-20T04:29:48;-0.20;87.64
67131;HTU21D;54051;53.464;49.532;2022-11-20T04:32:14;-0.20;87.42
67131;HTU21D;54051;53.464;49.532;2022-11-20T04:34:40;-0.20;87.26
67131;HTU21D;54051;53.464;49.532;2022-11-20T04:37:06;-0.21;86.99
67131;HTU21D;54051;53.464;49.532;2022-11-20T04:39:32;-0.17;87.12
67131;HTU21D;54051;53.464;49.532;2022-11-20T04:41:58;-0.16;87.00
67131;HTU21D;54051;53.464;49.532;2022-11-20T04:44:42;-0.15;86.95
67131;HTU21D;54051;53.464;49.532;2022-11-20T04:47:08;-0.15;86.96
67131;HTU21D;54051;53.464;49.532;2022-11-20T04:49:34;-0.15;87.60
67131;HTU21D;54051;53.464;49.532;2022-11-20T04:52:00;-0.19;87.41
67131;HTU21D;54051;53.464;49.532;2022-11-20T04:54:26;-0.17;87.47
67131;HTU21D;54051;53.464;49.532;2022-11-20T04:56:52;-0.14;87.16
67131;HTU21D;54051;53.464;49.532;2022-11-20T04:59:18;-0.10;87.23
67131;HTU21D;54051;53.464;49.532;2022-11-20T05:01:44;-0.12;87.12
67131;HTU21D;54051;53.464;49.532;2022-11-20T05:04:10;-0.16;87.25
67131;HTU21D;54051;53.464;49.532;2022-11-20T05:06:36;-0.12;87.05
67131;HTU21D;54051;53.464;49.532;2022-11-20T05:09:02;-0.06;87.03
67131;HTU21D;54051;53.464;49.532;2022-11-20T05:11:28;-0.16;86.73
67131;HTU21D;54051;53.464;49.532;2022-11-20T05:13:54;-0.16;87.00
67131;HTU21D;54051;53.464;49.532;2022-11-20T05:16:23;-0.19;87.30
67131;HTU21D;54051;53.464;49.532;2022-11-20T05:18:50;-0.15;87.24
67131;HTU21D;54051;53.464;49.532;2022-11-20T05:21:16;-0.02;87.09
67131;HTU21D;54051;53.464;49.532;2022-11-20T05:23:44;-0.01;86.47
67131;HTU21D;54051;53.464;49.532;2022-11-20T05:26:16;-0.14;87.09
67131;HTU21D;54051;53.464;49.532;2022-11-20T05:28:42;-0.07;87.25
67131;HTU21D;54051;53.464;49.532;2022-11-20T05:31:13;-0.03;86.83
67131;HTU21D;54051;53.464;49.532;2022-11-20T05:33:41;-0.03;87.03
67131;HTU21D;54051;53.464;49.532;2022-11-20T05:36:08;-0.03;86.82
67131;HTU21D;54051;53.464;49.532;2022-11-20T05:38:35;-0.02;86.95
67131;HTU21D;54051;53.464;49.532;2022-11-20T05:41:10;0.06;86.62
67131;HTU21D;54051;53.464;49.532;2022-11-20T05:43:38;0.10;86.71
67131;HTU21D;54051;53.464;49.532;2022-11-20T05:46:05;0.17;86.67
67131;HTU21D;54051;53.464;49.532;2022-11-20T05:48:31;0.33;86.25
67131;HTU21D;54051;53.464;49.532;2022-11-20T05:51:03;0.34;85.37
67131;HTU21D;54051;53.464;49.532;2022-11-20T05:53:29;0.34;86.06
67131;HTU21D;54051;53.464;49.532;2022-11-20T05:55:57;0.35;85.90
67131;HTU21D;54051;53.464;49.532;2022-11-20T05:58:23;0.32;85.88
67131;HTU21D;54051;53.464;49.532;2022-11-20T06:00:49;0.31;86.21
67131;HTU21D;54051;53.464;49.532;2022-11-20T06:03:15;0.43;86.32
67131;HTU21D;54051;53.464;49.532;2022-11-20T06:05:41;0.40;85.76
67131;HTU21D;54051;53.464;49.532;2022-11-20T06:08:07;0.42;86.16
67131;HTU21D;54051;53.464;49.532;2022-11-20T06:10:33;0.38;86.38
67131;HTU21D;54051;53.464;49.532;2022-11-20T06:12:59;0.42;86.71
67131;HTU21D;54051;53.464;49.532;2022-11-20T06:15:25;0.40;86.75
67131;HTU21D;54051;53.464;49.532;2022-11-20T06:17:55;0.49;86.06
67131;HTU21D;54051;53.464;49.532;2022-11-20T06:20:22;0.45;86.03
67131;HTU21D;54051;53.464;49.532;2022-11-20T06:22:48;0.43;86.25
67131;HTU21D;54051;53.464;49.532;2022-11-20T06:25:14;0.45;86.43
67131;HTU21D;54051;53.464;49.532;2022-11-20T06:27:40;0.48;86.23
67131;HTU21D;54051;53.464;49.532;2022-11-20T06:30:06;0.51;86.14
67131;HTU21D;54051;53.464;49.532;2022-11-20T06:32:33;0.53;86.32
67131;HTU21D;54051;53.464;49.532;2022-11-20T06:34:59;0.59;86.45
67131;HTU21D;54051;53.464;49.532;2022-11-20T06:37:25;0.57;86.32
67131;HTU21D;54051;53.464;49.532;2022-11-20T06:39:51;0.63;86.30
67131;HTU21D;54051;53.464;49.532;2022-11-20T06:42:16;0.59;86.69
67131;HTU21D;54051;53.464;49.532;2022-11-20T06:44:42;0.67;86.16
67131;HTU21D;54051;53.464;49.532;2022-11-20T06:47:08;0.68;86.61
67131;HTU21D;54051;53.464;49.532;2022-11-20T06:49:34;0.65;86.19
67131;HTU21D;54051;53.464;49.532;2022-11-20T06:52:02;0.65;86.82
67131;HTU21D;54051;53.464;49.532;2022-11-20T06:54:28;0.75;86.48
67131;HTU21D;54051;53.464;49.532;2022-11-20T06:56:54;0.74;86.80
67131;HTU21D;54051;53.464;49.532;2022-11-20T06:59:20;0.74;86.83
67131;HTU21D;54051;53.464;49.532;2022-11-20T07:01:46;0.82;86.55
67131;HTU21D;54051;53.464;49.532;2022-11-20T07:04:12;0.92;86.32
67131;HTU21D;54051;53.464;49.532;2022-11-20T07:06:38;0.81;86.65
67131;HTU21D;54051;53.464;49.532;2022-11-20T07:09:04;0.76;87.05
67131;HTU21D;54051;53.464;49.532;2022-11-20T07:11:30;0.63;87.01
67131;HTU21D;54051;53.464;49.532;2022-11-20T07:13:57;0.55;87.70
67131;HTU21D;54051;53.464;49.532;2022-11-20T07:16:23;0.46;88.38
67131;HTU21D;54051;53.464;49.532;2022-11-20T07:18:49;0.34;88.92
67131;HTU21D;54051;53.464;49.532;2022-11-20T07:21:14;0.36;89.23
67131;HTU21D;54051;53.464;49.532;2022-11-20T07:23:41;0.37;89.13
67131;HTU21D;54051;53.464;49.532;2022-11-20T07:26:09;0.45;89.50
67131;HTU21D;54051;53.464;49.532;2022-11-20T07:28:35;0.40;89.39
67131;HTU21D;54051;53.464;49.532;2022-11-20T07:31:02;0.44;89.38
67131;HTU21D;54051;53.464;49.532;2022-11-20T07:33:28;0.48;89.31
67131;HTU21D;54051;53.464;49.532;2022-11-20T07:35:54;0.49;89.57
67131;HTU21D;54051;53.464;49.532;2022-11-20T07:38:20;0.57;89.15
67131;HTU21D;54051;53.464;49.532;2022-11-20T07:40:46;0.62;88.51
67131;HTU21D;54051;53.464;49.532;2022-11-20T07:43:12;0.60;89.06
67131;HTU21D;54051;53.464;49.532;2022-11-20T07:45:38;0.68;88.31
67131;HTU21D;54051;53.464;49.532;2022-11-20T07:48:04;0.66;88.84
67131;HTU21D;54051;53.464;49.532;2022-11-20T07:50:30;0.75;88.10
67131;HTU21D;54051;53.464;49.532;2022-11-20T07:53:06;0.71;87.88
67131;HTU21D;54051;53.464;49.532;2022-11-20T07:55:32;0.71;88.07
67131;HTU21D;54051;53.464;49.532;2022-11-20T07:58:00;0.64;88.25
67131;HTU21D;54051;53.464;49.532;2022-11-20T08:00:26;0.77;88.36
67131;HTU21D;54051;53.464;49.532;2022-11-20T08:02:53;0.80;87.96
67131;HTU21D;54051;53.464;49.532;2022-11-20T08:05:19;0.75;87.83
67131;HTU21D;54051;53.464;49.532;2022-11-20T08:07:45;0.79;88.10
67131;HTU21D;54051;53.464;49.532;2022-11-20T08:10:13;0.91;88.07
67131;HTU21D;54051;53.464;49.532;2022-11-20T08:12:47;1.02;87.52
67131;HTU21D;54051;53.464;49.532;2022-11-20T08:15:33;1.16;87.71
67131;HTU21D;54051;53.464;49.532;2022-11-20T08:18:01;1.20;86.49
67131;HTU21D;54051;53.464;49.532;2022-11-20T08:20:27;1.29;86.83
67131;HTU21D;54051;53.464;49.532;2022-11-20T08:22:58;1.45;85.95
67131;HTU21D;54051;53.464;49.532;2022-11-20T08:25:24;1.60;85.90
67131;HTU21D;54051;53.464;49.532;2022-11-20T08:27:50;1.66;84.66
67131;HTU21D;54051;53.464;49.532;2022-11-20T08:30:16;1.62;84.77
67131;HTU21D;54051;53.464;49.532;2022-11-20T08:32:42;1.62;85.87
67131;HTU21D;54051;53.464;49.532;2022-11-20T08:35:08;1.72;84.41
67131;HTU21D;54051;53.464;49.532;2022-11-20T08:37:34;1.63;85.09
67131;HTU21D;54051;53.464;49.532;2022-11-20T08:40:00;1.60;84.77
67131;HTU21D;54051;53.464;49.532;2022-11-20T08:42:26;1.47;85.61
67131;HTU21D;54051;53.464;49.532;2022-11-20T08:44:52;1.35;86.51
67131;HTU21D;54051;53.464;49.532;2022-11-20T08:47:18;1.33;86.60
67131;HTU21D;54051;53.464;49.532;2022-11-20T08:49:44;1.35;86.90
67131;HTU21D;54051;53.464;49.532;2022-11-20T08:52:10;1.35;86.84
67131;HTU21D;54051;53.464;49.532;2022-11-20T08:54:36;1.33;87.17
67131;HTU21D;54051;53.464;49.532;2022-11-20T08:57:02;1.37;86.81
67131;HTU21D;54051;53.464;49.532;2022-11-20T08:59:28;1.47;86.47
67131;HTU21D;54051;53.464;49.532;2022-11-20T09:01:55;1.41;85.86
67131;HTU21D;54051;53.464;49.532;2022-11-20T09:04:21;1.28;86.79
67131;HTU21D;54051;53.464;49.532;2022-11-20T09:06:47;1.27;87.06
67131;HTU21D;54051;53.464;49.532;2022-11-20T09:09:17;1.22;86.77
67131;HTU21D;54051;53.464;49.532;2022-11-20T09:11:44;1.23;87.09
67131;HTU21D;54051;53.464;49.532;2022-11-20T09:14:10;1.25;86.57
67131;HTU21D;54051;53.464;49.532;2022-11-20T09:16:36;1.21;86.65
67131;HTU21D;54051;53.464;49.532;2022-11-20T09:19:02;1.24;87.03
67131;HTU21D;54051;53.464;49.532;2022-11-20T09:21:28;1.43;85.64
67131;HTU21D;54051;53.464;49.532;2022-11-20T09:23:54;1.48;86.39
67131;HTU21D;54051;53.464;49.532;2022-11-20T09:26:20;1.67;85.41
67131;HTU21D;54051;53.464;49.532;2022-11-20T09:28:46;1.78;85.35
67131;HTU21D;54051;53.464;49.532;2022-11-20T09:31:22;1.86;83.90
67131;HTU21D;54051;53.464;49.532;2022-11-20T09:33:48;1.98;83.65
67131;HTU21D;54051;53.464;49.532;2022-11-20T09:36:15;2.14;83.16
67131;HTU21D;54051;53.464;49.532;2022-11-20T09:38:41;2.22;82.23
67131;HTU21D;54051;53.464;49.532;2022-11-20T09:41:36;2.21;82.20
67131;HTU21D;54051;53.464;49.532;2022-11-20T09:49:54;1.82;83.67
67131;HTU21D;54051;53.464;49.532;2022-11-20T09:52:41;1.77;84.43
67131;HTU21D;54051;53.464;49.532;2022-11-20T09:55:12;1.82;83.63
67131;HTU21D;54051;53.464;49.532;2022-11-20T09:57:42;1.85;84.00
67131;HTU21D;54051;53.464;49.532;2022-11-20T10:00:12;1.92;84.20
67131;HTU21D;54051;53.464;49.532;2022-11-20T10:02:55;2.03;83.77
67131;HTU21D;54051;53.464;49.532;2022-11-20T10:05:30;1.99;83.32
67131;HTU21D;54051;53.464;49.532;2022-11-20T10:10:34;1.87;84.15
67131;HTU21D;54051;53.464;49.532;2022-11-20T10:27:31;2.15;84.19
67131;HTU21D;54051;53.464;49.532;2022-11-20T10:30:16;2.19;83.87
67131;HTU21D;54051;53.464;49.532;2022-11-20T10:32:46;2.22;84.05
67131;HTU21D;54051;53.464;49.532;2022-11-20T10:35:23;2.16;83.72
67131;HTU21D;54051;53.464;49.532;2022-11-20T10:37:58;2.17;84.97
67131;HTU21D;54051;53.464;49.532;2022-11-20T10:40:37;2.27;84.49
67131;HTU21D;54051;53.464;49.532;2022-11-20T10:43:28;2.24;84.35
67131;HTU21D;54051;53.464;49.532;2022-11-20T10:46:08;2.24;84.08
67131;HTU21D;54051;53.464;49.532;2022-11-20T10:48:36;2.14;84.42
67131;HTU21D;54051;53.464;49.532;2022-11-20T10:53:58;2.03;83.97
67131;HTU21D;54051;53.464;49.532;2022-11-20T10:56:42;1.84;84.73
67131;HTU21D;54051;53.464;49.532;2022-11-20T10:59:41;1.87;85.46
67131;HTU21D;54051;53.464;49.532;2022-11-20T11:02:22;1.96;84.81
67131;HTU21D;54051;53.464;49.532;2022-11-20T11:04:52;2.01;84.49
67131;HTU21D;54051;53.464;49.532;2022-11-20T11:07:23;1.95;84.21
67131;HTU21D;54051;53.464;49.532;2022-11-20T11:09:53;1.85;84.81
67131;HTU21D;54051;53.464;49.532;2022-11-20T11:12:21;1.77;85.03
67131;HTU21D;54051;53.464;49.532;2022-11-20T11:14:49;1.63;86.19
67131;HTU21D;54051;53.464;49.532;2022-11-20T11:17:23;1.63;86.37
67131;HTU21D;54051;53.464;49.532;2022-11-20T11:20:03;1.45;86.15
67131;HTU21D;54051;53.464;49.532;2022-11-20T11:22:34;1.31;87.19
67131;HTU21D;54051;53.464;49.532;2022-11-20T11:25:09;1.32;87.49
67131;HTU21D;54051;53.464;49.532;2022-11-20T11:27:48;1.23;87.50
67131;HTU21D;54051;53.464;49.532;2022-11-20T11:30:16;1.26;87.77
67131;HTU21D;54051;53.464;49.532;2022-11-20T11:32:43;1.31;87.52
67131;HTU21D;54051;53.464;49.532;2022-11-20T11:35:22;1.25;87.34
67131;HTU21D;54051;53.464;49.532;2022-11-20T11:37:49;1.25;87.51
67131;HTU21D;54051;53.464;49.532;2022-11-20T11:40:18;1.22;87.70
67131;HTU21D;54051;53.464;49.532;2022-11-20T11:42:57;1.14;87.77
67131;HTU21D;54051;53.464;49.532;2022-11-20T11:45:23;1.12;88.46
67131;HTU21D;54051;53.464;49.532;2022-11-20T11:47:51;1.09;88.19
67131;HTU21D;54051;53.464;49.532;2022-11-20T11:50:21;1.10;88.57
67131;HTU21D;54051;53.464;49.532;2022-11-20T11:55:29;1.11;88.39
67131;HTU21D;54051;53.464;49.532;2022-11-20T12:01:03;0.98;88.49
67131;HTU21D;54051;53.464;49.532;2022-11-20T12:03:40;0.99;88.47
67131;HTU21D;54051;53.464;49.532;2022-11-20T12:06:11;0.97;88.54
67131;HTU21D;54051;53.464;49.532;2022-11-20T12:14:02;0.93;88.90
67131;HTU21D;54051;53.464;49.532;2022-11-20T12:16:37;0.91;88.90
67131;HTU21D;54051;53.464;49.532;2022-11-20T12:19:11;0.93;88.84
67131;HTU21D;54051;53.464;49.532;2022-11-20T12:27:43;0.91;89.18
67131;HTU21D;54051;53.464;49.532;2022-11-20T12:30:14;0.98;88.88
67131;HTU21D;54051;53.464;49.532;2022-11-20T12:35:44;1.02;88.46
67131;HTU21D;54051;53.464;49.532;2022-11-20T12:50:48;1.05;88.44
67131;HTU21D;54051;53.464;49.532;2022-11-20T12:56:41;1.03;88.82
67131;HTU21D;54051;53.464;49.532;2022-11-20T13:01:50;1.08;89.12
67131;HTU21D;54051;53.464;49.532;2022-11-20T13:07:08;1.10;89.09
67131;HTU21D;54051;53.464;49.532;2022-11-20T13:09:45;1.09;88.97
67131;HTU21D;54051;53.464;49.532;2022-11-20T13:15:02;1.14;89.04
67131;HTU21D;54051;53.464;49.532;2022-11-20T13:20:06;1.18;88.51
67131;HTU21D;54051;53.464;49.532;2022-11-20T13:22:50;1.18;88.60
67131;HTU21D;54051;53.464;49.532;2022-11-20T13:25:32;1.20;88.83
67131;HTU21D;54051;53.464;49.532;2022-11-20T13:28:00;1.24;88.35
67131;HTU21D;54051;53.464;49.532;2022-11-20T13:30:28;1.27;87.87
67131;HTU21D;54051;53.464;49.532;2022-11-20T13:32:57;1.21;88.03
67131;HTU21D;54051;53.464;49.532;2022-11-20T13:35:34;1.08;88.58
67131;HTU21D;54051;53.464;49.532;2022-11-20T13:40:34;0.97;89.38
67131;HTU21D;54051;53.464;49.532;2022-11-20T13:43:08;0.94;89.73
67131;HTU21D;54051;53.464;49.532;2022-11-20T13:45:36;0.98;89.73
67131;HTU21D;54051;53.464;49.532;2022-11-20T13:48:15;1.01;89.57
67131;HTU21D;54051;53.464;49.532;2022-11-20T13:56:47;1.08;89.28
67131;HTU21D;54051;53.464;49.532;2022-11-20T14:01:54;1.11;89.21
67131;HTU21D;54051;53.464;49.532;2022-11-20T14:04:33;1.16;89.17
67131;HTU21D;54051;53.464;49.532;2022-11-20T14:07:00;1.26;88.83
67131;HTU21D;54051;53.464;49.532;2022-11-20T14:09:33;1.29;88.09
67131;HTU21D;54051;53.464;49.532;2022-11-20T14:12:01;1.18;88.70
67131;HTU21D;54051;53.464;49.532;2022-11-20T14:14:29;1.18;88.53
67131;HTU21D;54051;53.464;49.532;2022-11-20T14:17:07;1.19;88.86
67131;HTU21D;54051;53.464;49.532;2022-11-20T14:19:34;1.24;88.97
67131;HTU21D;54051;53.464;49.532;2022-11-20T14:24:42;1.38;87.99
67131;HTU21D;54051;53.464;49.532;2022-11-20T14:27:18;1.45;87.94
67131;HTU21D;54051;53.464;49.532;2022-11-20T14:29:46;1.48;87.10
67131;HTU21D;54051;53.464;49.532;2022-11-20T14:32:22;1.49;87.38
67131;HTU21D;54051;53.464;49.532;2022-11-20T14:34:51;1.50;87.03
67131;HTU21D;54051;53.464;49.532;2022-11-20T14:37:24;1.48;87.29
67131;HTU21D;54051;53.464;49.532;2022-11-20T14:39:53;1.48;87.03
67131;HTU21D;54051;53.464;49.532;2022-11-20T14:42:25;1.54;86.94
67131;HTU21D;54051;53.464;49.532;2022-11-20T14:44:55;1.53;86.93
67131;HTU21D;54051;53.464;49.532;2022-11-20T14:47:24;1.56;86.79
67131;HTU21D;54051;53.464;49.532;2022-11-20T14:49:51;1.55;86.55
67131;HTU21D;54051;53.464;49.532;2022-11-20T14:52:20;1.51;86.74
67131;HTU21D;54051;53.464;49.532;2022-11-20T14:54:57;1.40;87.25
67131;HTU21D;54051;53.464;49.532;2022-11-20T15:02:46;1.40;88.04
67131;HTU21D;54051;53.464;49.532;2022-11-20T15:05:13;1.45;88.26
67131;HTU21D;54051;53.464;49.532;2022-11-20T15:07:43;1.47;88.35
67131;HTU21D;54051;53.464;49.532;2022-11-20T15:10:27;1.55;88.25
67131;HTU21D;54051;53.464;49.532;2022-11-20T15:12:55;1.58;87.87
67131;HTU21D;54051;53.464;49.532;2022-11-20T15:15:36;1.51;87.95
67131;HTU21D;54051;53.464;49.532;2022-11-20T15:18:04;1.57;88.06
67131;HTU21D;54051;53.464;49.532;2022-11-20T15:20:31;1.51;87.91
67131;HTU21D;54051;53.464;49.532;2022-11-20T15:22:58;1.57;87.91
67131;HTU21D;54051;53.464;49.532;2022-11-20T15:25:24;1.50;87.86
67131;HTU21D;54051;53.464;49.532;2022-11-20T15:27:55;1.49;88.08
67131;HTU21D;54051;53.464;49.532;2022-11-20T15:30:23;1.47;88.09
67131;HTU21D;54051;53.464;49.532;2022-11-20T15:32:49;1.35;88.58
67131;HTU21D;54051;53.464;49.532;2022-11-20T15:35:16;1.35;89.28
67131;HTU21D;54051;53.464;49.532;2022-11-20T15:37:42;1.36;89.40
67131;HTU21D;54051;53.464;49.532;2022-11-20T15:40:08;1.39;89.29
67131;HTU21D;54051;53.464;49.532;2022-11-20T15:42:35;1.40;89.17
67131;HTU21D;54051;53.464;49.532;2022-11-20T15:45:01;1.43;89.17
67131;HTU21D;54051;53.464;49.532;2022-11-20T15:47:33;1.51;88.88
67131;HTU21D;54051;53.464;49.532;2022-11-20T15:49:59;1.42;88.51
67131;HTU21D;54051;53.464;49.532;2022-11-20T15:52:26;1.35;89.36
67131;HTU21D;54051;53.464;49.532;2022-11-20T15:54:52;1.32;89.25
67131;HTU21D;54051;53.464;49.532;2022-11-20T15:57:18;1.36;89.37
67131;HTU21D;54051;53.464;49.532;2022-11-20T15:59:44;1.39;89.23
67131;HTU21D;54051;53.464;49.532;2022-11-20T16:02:11;1.36;89.25
67131;HTU21D;54051;53.464;49.532;2022-11-20T16:04:37;1.38;88.91
67131;HTU21D;54051;53.464;49.532;2022-11-20T16:07:04;1.37;88.73
67131;HTU21D;54051;53.464;49.532;2022-11-20T16:09:30;1.34;88.57
67131;HTU21D;54051;53.464;49.532;2022-11-20T16:11:56;1.36;88.92
67131;HTU21D;54051;53.464;49.532;2022-11-20T16:14:28;1.39;88.71
67131;HTU21D;54051;53.464;49.532;2022-11-20T16:17:12;1.39;88.44
67131;HTU21D;54051;53.464;49.532;2022-11-20T16:19:39;1.39;88.62
67131;HTU21D;54051;53.464;49.532;2022-11-20T16:22:05;1.48;88.57
67131;HTU21D;54051;53.464;49.532;2022-11-20T16:24:31;1.50;87.99
67131;HTU21D;54051;53.464;49.532;2022-11-20T16:26:57;1.55;87.83
67131;HTU21D;54051;53.464;49.532;2022-11-20T16:29:23;1.50;87.49
67131;HTU21D;54051;53.464;49.532;2022-11-20T16:31:49;1.51;87.79
67131;HTU21D;54051;53.464;49.532;2022-11-20T16:34:16;1.39;87.59
67131;HTU21D;54051;53.464;49.532;2022-11-20T16:36:43;1.38;88.12
67131;HTU21D;54051;53.464;49.532;2022-11-20T16:39:11;1.43;87.71
67131;HTU21D;54051;53.464;49.532;2022-11-20T16:41:37;1.42;87.67
67131;HTU21D;54051;53.464;49.532;2022-11-20T16:44:08;1.45;87.61
67131;HTU21D;54051;53.464;49.532;2022-11-20T16:46:36;1.48;87.56
67131;HTU21D;54051;53.464;49.532;2022-11-20T16:49:06;1.49;87.16
67131;HTU21D;54051;53.464;49.532;2022-11-20T16:51:36;1.51;87.30
67131;HTU21D;54051;53.464;49.532;2022-11-20T16:54:07;1.40;87.25
67131;HTU21D;54051;53.464;49.532;2022-11-20T16:56:33;1.41;87.77
67131;HTU21D;54051;53.464;49.532;2022-11-20T16:59:00;1.50;87.54
67131;HTU21D;54051;53.464;49.532;2022-11-20T17:01:27;1.45;87.66